Time;durP1;ratioP1;P1;durP2;ratioP2;P2;SDS_P1;SDS_P2;PMS_P1;PMS_P2;Temp;Humidity;BMP_temperature;BMP_pressure;BME280_temperature;BME280_humidity;BME280_pressure;Samples;Min_cycle;Max_cycle;Signal;HPM_P1;HPM_P2
2022/03/18 00:02:26;;;;;;;64.67;42.17;;;;;;;5.64;100.00;97946.84;5015909;28;20937;-74
2022/03/18 00:04:54;;;;;;;57.90;37.33;;;;;;;5.61;100.00;97952.59;5015128;28;20452;-73
2022/03/18 00:07:21;;;;;;;61.63;40.43;;;;;;;5.58;100.00;97950.47;5014104;28;20472;-73
2022/03/18 00:09:48;;;;;;;50.00;32.80;;;;;;;5.69;100.00;97946.84;5013601;28;20459;-74
2022/03/18 00:12:16;;;;;;;58.23;38.13;;;;;;;5.55;100.00;97956.22;5028392;28;20504;-73
2022/03/18 00:14:43;;;;;;;52.97;36.77;;;;;;;5.11;100.00;97885.66;5015134;28;20449;-74
2022/03/18 00:17:11;;;;;;;57.73;38.33;;;;;;;5.61;100.00;97960.47;5032751;28;20453;-74
2022/03/18 00:19:38;;;;;;;63.43;40.40;;;;;;;4.99;100.00;97882.44;5020462;28;20441;-73
2022/03/18 00:22:06;;;;;;;58.97;37.63;;;;;;;4.89;100.00;97879.72;5001711;28;20471;-73
2022/03/18 00:24:34;;;;;;;57.03;39.40;;;;;;;5.09;100.00;97898.22;4997111;28;20555;-73
2022/03/18 00:27:03;;;;;;;52.50;36.83;;;;;;;5.04;100.00;97895.56;5022050;28;20895;-74
2022/03/18 00:29:31;;;;;;;62.33;38.43;;;;;;;5.29;100.00;97940.31;5018823;28;20452;-74
2022/03/18 00:31:59;;;;;;;52.23;35.77;;;;;;;4.79;100.00;97863.91;5020601;28;21027;-74
2022/03/18 00:34:26;;;;;;;59.73;39.93;;;;;;;5.00;100.00;97915.47;5017734;28;20461;-74
2022/03/18 00:36:54;;;;;;;55.53;35.90;;;;;;;4.67;100.00;97862.28;5023667;28;20502;-74
2022/03/18 00:39:21;;;;;;;56.13;33.87;;;;;;;5.39;100.00;97965.81;5017127;28;20433;-73
2022/03/18 00:41:48;;;;;;;57.03;34.73;;;;;;;4.73;100.00;97873.56;5013334;28;20929;-74
2022/03/18 00:44:15;;;;;;;51.10;35.53;;;;;;;5.25;100.00;97962.06;5027266;28;20460;-74
2022/03/18 00:46:41;;;;;;;50.13;32.00;;;;;;;4.53;100.00;97861.09;5014110;28;20523;-73
2022/03/18 00:52:14;;;;;;;54.63;34.27;;;;;;;4.65;100.00;97877.44;5013063;28;21011;-74
2022/03/18 00:54:44;;;;;;;55.73;35.73;;;;;;;4.42;100.00;97854.19;5010142;28;20502;-74
2022/03/18 00:57:12;;;;;;;60.30;36.50;;;;;;;5.09;100.00;97945.41;5020449;28;20761;-74
2022/03/18 00:59:39;;;;;;;59.40;35.43;;;;;;;5.20;100.00;97962.78;5023128;28;20429;-74
2022/03/18 01:02:06;;;;;;;54.80;34.27;;;;;;;4.25;100.00;97822.88;5013569;28;20441;-74
2022/03/18 01:04:34;;;;;;;56.40;36.10;;;;;;;4.91;100.00;97925.59;5027908;28;20877;-74
2022/03/18 01:07:00;;;;;;;52.83;34.40;;;;;;;4.64;100.00;97888.94;5040061;28;20472;-74
2022/03/18 01:09:27;;;;;;;58.40;37.37;;;;;;;4.74;100.00;97896.13;5031439;28;20430;-74
2022/03/18 01:11:54;;;;;;;52.23;31.20;;;;;;;4.08;100.00;97786.34;5023583;28;20495;-74
2022/03/18 01:14:22;;;;;;;58.53;33.53;;;;;;;4.71;100.00;97897.41;5030566;28;20467;-73
2022/03/18 01:16:49;;;;;;;55.53;35.73;;;;;;;4.54;100.00;97877.59;5026535;28;20451;-74
2022/03/18 01:19:16;;;;;;;55.43;34.97;;;;;;;5.19;100.00;97981.41;5039988;28;20439;-73
2022/03/18 01:21:43;;;;;;;56.80;32.93;;;;;;;4.38;100.00;97872.22;5026200;28;20496;-74
2022/03/18 01:24:10;;;;;;;58.87;33.50;;;;;;;4.73;100.00;97937.25;5028794;28;20459;-74
2022/03/18 01:26:38;;;;;;;50.43;32.90;;;;;;;5.14;100.00;97986.59;5033224;28;20440;-74
2022/03/18 01:29:05;;;;;;;57.03;37.27;;;;;;;4.32;100.00;97875.84;5019372;28;21090;-73
2022/03/18 01:31:33;;;;;;;54.00;33.33;;;;;;;4.14;100.00;97853.41;5021728;28;20856;-74
2022/03/18 01:33:59;;;;;;;53.13;31.40;;;;;;;4.81;100.00;97941.25;5018131;28;20480;-74
2022/03/18 01:36:26;;;;;;;53.53;31.60;;;;;;;4.97;100.00;97947.41;5024288;28;20476;-74
2022/03/18 01:38:53;;;;;;;40.73;28.83;;;;;;;5.19;100.00;97997.91;5027508;28;20990;-74
2022/03/18 01:41:20;;;;;;;54.87;31.70;;;;;;;4.07;100.00;97836.31;5023955;28;20467;-74
2022/03/18 01:43:47;;;;;;;48.83;29.23;;;;;;;5.16;100.00;98010.75;5026647;28;20988;-74
2022/03/18 01:46:16;;;;;;;46.97;31.47;;;;;;;5.12;100.00;97994.72;5038701;28;20476;-73
2022/03/18 01:48:45;;;;;;;43.70;28.93;;;;;;;4.06;100.00;97832.13;5037274;28;20434;-73
2022/03/18 01:51:16;;;;;;;48.17;27.57;;;;;;;4.87;100.00;97963.03;5049714;28;20585;-74
2022/03/18 01:53:44;;;;;;;47.00;30.77;;;;;;;4.82;100.00;97969.03;5033616;28;20468;-73
2022/03/18 01:56:12;;;;;;;44.43;29.70;;;;;;;4.92;100.00;97978.81;5027770;28;20428;-74
2022/03/18 01:58:39;;;;;;;42.73;30.17;;;;;;;4.92;100.00;97990.06;5032366;28;20779;-74
2022/03/18 02:01:08;;;;;;;42.47;28.13;;;;;;;4.83;100.00;97977.69;5018870;28;20531;-74
2022/03/18 02:03:36;;;;;;;46.30;27.43;;;;;;;4.95;100.00;98013.19;5029979;28;20428;-73
2022/03/18 02:06:02;;;;;;;38.93;27.77;;;;;;;4.87;100.00;97979.56;5019529;28;20502;-74
2022/03/18 02:08:29;;;;;;;40.17;26.13;;;;;;;4.97;100.00;98011.09;5064188;28;20914;-74
2022/03/18 02:10:56;;;;;;;40.63;28.30;;;;;;;4.87;100.00;98021.50;5032132;28;20447;-74
2022/03/18 02:13:22;;;;;;;37.00;25.40;;;;;;;4.74;100.00;98001.72;5030793;28;20462;-74
2022/03/18 02:15:49;;;;;;;37.13;23.70;;;;;;;4.73;100.00;98010.59;5030332;28;21034;-74
2022/03/18 02:18:16;;;;;;;32.43;22.03;;;;;;;4.58;100.00;97975.59;5017425;28;20527;-74
2022/03/18 02:20:42;;;;;;;27.50;18.17;;;;;;;4.84;100.00;98021.19;5030297;28;20523;-74
2022/03/18 02:23:09;;;;;;;27.07;20.40;;;;;;;4.62;100.00;97992.41;5028173;28;20432;-74
2022/03/18 02:25:36;;;;;;;27.67;17.83;;;;;;;4.83;100.00;98030.88;5052288;28;20444;-73
2022/03/18 02:28:04;;;;;;;24.67;17.23;;;;;;;4.81;100.00;98032.97;5016634;28;20944;-74
2022/03/18 02:30:34;;;;;;;30.30;17.30;;;;;;;4.73;100.00;98025.53;4994104;28;20425;-74
2022/03/18 02:33:02;;;;;;;26.40;19.60;;;;;;;4.72;100.00;98034.44;5011526;28;21217;-73
2022/03/18 02:35:29;;;;;;;24.23;16.50;;;;;;;4.72;100.00;98039.69;5054017;28;20459;-74
2022/03/18 02:37:58;;;;;;;26.10;17.37;;;;;;;4.47;100.00;98010.56;5026164;28;20484;-74
2022/03/18 02:40:26;;;;;;;31.43;18.93;;;;;;;4.41;100.00;98007.91;5010616;28;20460;-74
2022/03/18 02:42:53;;;;;;;24.97;18.27;;;;;;;4.78;100.00;98043.13;5011538;28;20431;-74
2022/03/18 02:45:20;;;;;;;19.80;15.17;;;;;;;4.66;100.00;98041.44;4999635;28;21068;-74
2022/03/18 02:47:46;;;;;;;24.97;17.70;;;;;;;4.55;100.00;98037.13;5045021;28;20487;-74
2022/03/18 02:50:15;;;;;;;26.27;18.00;;;;;;;4.55;100.00;98038.97;5031544;28;20423;-74
2022/03/18 02:52:43;;;;;;;26.33;18.57;;;;;;;4.54;100.00;98047.84;5016577;28;20825;-74
2022/03/18 02:55:11;;;;;;;25.00;18.20;;;;;;;4.51;100.00;98050.94;5018133;28;20534;-74
2022/03/18 02:57:38;;;;;;;26.03;17.70;;;;;;;4.43;100.00;98042.50;5048978;28;20530;-74
2022/03/18 03:00:06;;;;;;;22.87;17.00;;;;;;;4.48;100.00;98054.06;5017276;28;21108;-74
2022/03/18 03:02:34;;;;;;;26.90;18.17;;;;;;;4.50;100.00;98050.16;4990877;28;20898;-74
2022/03/18 03:08:00;;;;;;;27.57;16.00;;;;;;;4.51;100.00;98064.03;5021078;28;20461;-74
2022/03/18 03:10:32;;;;;;;26.13;17.37;;;;;;;4.17;100.00;98034.56;5013364;28;20444;-73
2022/03/18 03:13:03;;;;;;;26.63;17.20;;;;;;;4.42;100.00;98071.56;5032750;28;20515;-73
2022/03/18 03:15:30;;;;;;;23.43;16.90;;;;;;;4.21;100.00;98044.31;5040016;28;20560;-74
2022/03/18 03:17:57;;;;;;;26.00;18.43;;;;;;;4.24;100.00;98058.72;4994334;28;20541;-74
2022/03/18 03:20:23;;;;;;;27.03;17.70;;;;;;;4.12;100.00;98035.28;5043399;28;20454;-74
2022/03/18 03:22:50;;;;;;;25.60;17.80;;;;;;;4.41;100.00;98080.44;5046993;28;20986;-73
2022/03/18 03:25:17;;;;;;;23.37;14.87;;;;;;;4.30;100.00;98074.28;5027369;28;20920;-73
2022/03/18 03:27:44;;;;;;;23.73;17.73;;;;;;;4.20;100.00;98055.81;5028430;28;20944;-74
2022/03/18 03:30:11;;;;;;;21.10;15.30;;;;;;;4.44;100.00;98090.44;5033295;28;20433;-74
2022/03/18 03:32:38;;;;;;;23.27;17.03;;;;;;;4.43;100.00;98097.50;5032781;28;20469;-74
2022/03/18 03:35:06;;;;;;;21.80;14.87;;;;;;;4.45;100.00;98098.03;5020870;28;20534;-74
2022/03/18 03:37:33;;;;;;;20.40;16.37;;;;;;;4.44;100.00;98100.91;5021428;28;20528;-73
2022/03/18 03:39:59;;;;;;;21.13;14.10;;;;;;;4.45;100.00;98105.09;5033523;28;20947;-74
2022/03/18 03:42:26;;;;;;;19.40;13.30;;;;;;;4.36;100.00;98096.88;5032309;28;20489;-74
2022/03/18 03:44:53;;;;;;;24.80;14.87;;;;;;;4.41;100.00;98110.03;5013284;28;20471;-74
2022/03/18 03:47:20;;;;;;;21.30;14.70;;;;;;;4.17;100.00;98081.69;5014455;28;20941;-74
2022/03/18 03:49:46;;;;;;;18.77;13.40;;;;;;;4.42;100.00;98114.25;5033073;28;20431;-74
2022/03/18 03:52:13;;;;;;;16.73;12.60;;;;;;;4.45;100.00;98116.38;5031913;28;20447;-74
2022/03/18 03:54:40;;;;;;;17.53;12.23;;;;;;;4.28;100.00;98101.75;5029302;28;20547;-74
2022/03/18 03:57:08;;;;;;;15.47;11.50;;;;;;;4.54;100.00;98123.78;5030884;28;21032;-74
2022/03/18 03:59:35;;;;;;;14.80;10.70;;;;;;;4.40;100.00;98131.22;5032976;28;20944;-74
2022/03/18 04:02:03;;;;;;;18.67;14.43;;;;;;;4.41;100.00;98132.81;5032970;28;20531;-74
2022/03/18 04:04:31;;;;;;;14.23;11.73;;;;;;;4.38;100.00;98125.44;5032927;28;20466;-74
2022/03/18 04:06:58;;;;;;;18.03;12.80;;;;;;;4.35;100.00;98125.91;5032738;28;21866;-74
2022/03/18 04:09:26;;;;;;;16.03;12.50;;;;;;;4.36;100.00;98128.28;5032492;28;20432;-74
2022/03/18 04:11:52;;;;;;;19.03;12.10;;;;;;;4.34;100.00;98132.19;5032829;28;20441;-74
2022/03/18 04:14:20;;;;;;;16.80;13.33;;;;;;;4.35;100.00;98136.38;5015991;28;20507;-74
2022/03/18 04:16:47;;;;;;;16.37;13.57;;;;;;;4.33;100.00;98139.25;5032638;28;20431;-74
2022/03/18 04:19:14;;;;;;;16.73;12.87;;;;;;;4.48;100.00;98146.53;5033964;28;20479;-74
2022/03/18 04:21:42;;;;;;;17.13;13.63;;;;;;;4.35;100.00;98149.47;5032617;28;20444;-74
2022/03/18 04:24:08;;;;;;;15.10;12.77;;;;;;;4.19;100.00;98132.75;5048304;28;20475;-74
2022/03/18 04:26:41;;;;;;;15.40;11.53;;;;;;;4.09;100.00;98124.75;5029498;28;20436;-73
2022/03/18 04:29:08;;;;;;;18.83;13.30;;;;;;;4.30;100.00;98158.06;5024454;28;20479;-74
2022/03/18 04:31:35;;;;;;;17.80;13.63;;;;;;;4.10;100.00;98137.59;5032131;28;20526;-74
2022/03/18 04:34:03;;;;;;;22.93;15.03;;;;;;;4.27;100.00;98160.34;5020267;28;20464;-74
2022/03/18 04:36:29;;;;;;;19.87;15.10;;;;;;;3.95;100.00;98118.25;5015723;28;20476;-73
2022/03/18 04:38:56;;;;;;;17.13;13.77;;;;;;;3.81;100.00;98113.34;5012280;28;20474;-74
2022/03/18 04:41:23;;;;;;;23.27;17.23;;;;;;;4.25;100.00;98173.69;5031827;28;20985;-74
2022/03/18 04:43:49;;;;;;;18.23;13.43;;;;;;;3.97;100.00;98144.97;5033344;28;20426;-74
2022/03/18 04:46:16;;;;;;;18.70;12.73;;;;;;;4.21;100.00;98179.66;5026118;28;20445;-74
2022/03/18 04:48:42;;;;;;;17.40;12.77;;;;;;;3.94;100.00;98145.47;5012101;28;20530;-74
2022/03/18 04:51:09;;;;;;;13.67;12.23;;;;;;;4.06;100.00;98175.75;5012245;28;21040;-73
2022/03/18 04:53:36;;;;;;;16.13;12.73;;;;;;;4.02;100.00;98168.63;5012120;28;20464;-74
2022/03/18 04:56:03;;;;;;;15.03;11.53;;;;;;;4.11;100.00;98188.13;5028418;28;20536;-74
2022/03/18 04:58:29;;;;;;;19.13;13.93;;;;;;;4.07;100.00;98174.72;5026478;28;20519;-74
2022/03/18 05:00:56;;;;;;;18.17;13.30;;;;;;;3.91;100.00;98156.41;5033034;28;20474;-74
2022/03/18 05:03:24;;;;;;;15.70;11.70;;;;;;;3.99;100.00;98176.94;5018251;28;21032;-74
2022/03/18 05:05:51;;;;;;;15.77;12.53;;;;;;;3.96;100.00;98172.19;5032828;28;20466;-74
2022/03/18 05:08:17;;;;;;;17.17;11.50;;;;;;;3.91;100.00;98166.88;5031761;28;21070;-74
2022/03/18 05:10:44;;;;;;;19.70;16.20;;;;;;;4.07;100.00;98198.28;5031487;28;20463;-74
2022/03/18 05:13:11;;;;;;;14.47;12.80;;;;;;;3.91;100.00;98169.50;5031124;28;21023;-74
2022/03/18 05:15:39;;;;;;;22.00;12.43;;;;;;;4.22;100.00;98213.44;5025427;28;20502;-74
2022/03/18 05:18:06;;;;;;;19.50;11.87;;;;;;;4.03;100.00;98170.22;5027237;28;20451;-74
2022/03/18 05:20:34;;;;;;;17.10;12.10;;;;;;;4.21;100.00;98206.63;5031356;28;21002;-73
2022/03/18 05:23:02;;;;;;;16.90;13.13;;;;;;;4.03;100.00;98186.72;5030363;28;20526;-74
2022/03/18 05:25:28;;;;;;;20.67;13.37;;;;;;;3.91;100.00;98183.38;5020154;28;20461;-74
2022/03/18 05:27:55;;;;;;;17.40;12.80;;;;;;;3.92;100.00;98178.94;5016179;28;20424;-74
2022/03/18 05:30:22;;;;;;;17.57;12.60;;;;;;;4.09;100.00;98214.53;4994990;28;21027;-74
2022/03/18 05:32:48;;;;;;;20.20;14.20;;;;;;;4.07;100.00;98213.19;5011305;28;20464;-73
2022/03/18 05:35:18;;;;;;;16.60;13.30;;;;;;;4.05;100.00;98200.34;5021050;28;20462;-74
2022/03/18 05:37:45;;;;;;;17.20;13.90;;;;;;;4.00;100.00;98202.06;5015062;28;21032;-73
2022/03/18 05:40:12;;;;;;;18.50;12.13;;;;;;;4.11;100.00;98233.41;5044315;28;20524;-74
2022/03/18 05:42:39;;;;;;;20.63;13.47;;;;;;;4.11;100.00;98222.94;5046663;28;20433;-74
2022/03/18 05:45:06;;;;;;;25.23;17.23;;;;;;;4.18;100.00;98235.09;5030865;28;20502;-74
2022/03/18 05:47:32;;;;;;;22.47;15.17;;;;;;;4.08;100.00;98218.19;5017669;28;20539;-74
2022/03/18 05:50:05;;;;;;;23.50;16.60;;;;;;;4.07;100.00;98228.91;5023477;28;20435;-74
2022/03/18 05:52:34;;;;;;;22.23;14.87;;;;;;;4.01;100.00;98207.09;5027306;28;20827;-74
2022/03/18 05:55:02;;;;;;;24.33;15.50;;;;;;;4.21;100.00;98247.72;5030790;28;20562;-75
2022/03/18 05:57:29;;;;;;;24.13;16.57;;;;;;;4.12;100.00;98227.16;5030612;28;20434;-74
2022/03/18 05:59:57;;;;;;;25.53;17.30;;;;;;;4.38;100.00;98254.53;5030697;28;20551;-75
2022/03/18 06:02:25;;;;;;;25.83;18.93;;;;;;;4.20;100.00;98246.13;5012894;28;20889;-74
2022/03/18 06:04:52;;;;;;;30.00;19.00;;;;;;;4.27;100.00;98255.41;5027083;28;20507;-74
2022/03/18 06:07:18;;;;;;;23.67;17.87;;;;;;;4.23;100.00;98256.13;5028659;28;20444;-74
2022/03/18 06:12:31;;;;;;;26.27;19.43;;;;;;;4.20;100.00;98233.03;5031637;28;20455;-74
2022/03/18 06:14:57;;;;;;;33.13;19.30;;;;;;;4.10;100.00;98246.75;5016743;28;20999;-74
2022/03/18 06:17:24;;;;;;;22.43;16.70;;;;;;;3.96;100.00;98224.53;5030326;28;20522;-74
2022/03/18 06:19:51;;;;;;;27.80;19.87;;;;;;;4.01;100.00;98254.22;5031087;28;20482;-74
2022/03/18 06:22:17;;;;;;;28.50;18.87;;;;;;;4.30;100.00;98290.81;4994400;28;20832;-74
2022/03/18 06:24:44;;;;;;;31.70;19.80;;;;;;;4.01;100.00;98230.66;4996152;28;20510;-73
2022/03/18 06:27:11;;;;;;;30.70;20.07;;;;;;;4.12;100.00;98253.31;5030208;28;20437;-74
2022/03/18 06:29:42;;;;;;;34.93;25.30;;;;;;;4.47;100.00;98288.97;5000590;28;20464;-74
2022/03/18 06:32:10;;;;;;;31.17;20.10;;;;;;;4.44;100.00;98282.41;5023184;28;20460;-74
2022/03/18 06:34:38;;;;;;;30.70;22.30;;;;;;;4.54;100.00;98289.63;5013598;28;20512;-74
2022/03/18 06:37:05;;;;;;;30.00;18.53;;;;;;;4.53;100.00;98288.03;5021329;28;20425;-73
2022/03/18 06:39:33;;;;;;;31.13;21.00;;;;;;;4.58;100.00;98300.44;5030601;28;20548;-74
2022/03/18 06:42:00;;;;;;;32.83;23.00;;;;;;;4.51;100.00;98284.06;5019480;28;20480;-74
2022/03/18 06:44:27;;;;;;;29.40;21.30;;;;;;;4.54;100.00;98291.44;5015519;28;20440;-74
2022/03/18 06:46:54;;;;;;;35.10;26.70;;;;;;;4.50;100.00;98293.75;5031185;28;20460;-74
2022/03/18 06:49:20;;;;;;;28.90;20.10;;;;;;;4.55;100.00;98303.53;5020655;28;20482;-74
2022/03/18 06:51:47;;;;;;;37.90;22.13;;;;;;;4.47;100.00;98280.34;5023108;28;20428;-74
2022/03/18 06:54:14;;;;;;;35.20;22.27;;;;;;;4.65;100.00;98307.06;5033345;28;20571;-74
2022/03/18 06:56:40;;;;;;;43.90;26.60;;;;;;;4.57;100.00;98307.50;5022865;28;20440;-74
2022/03/18 06:59:07;;;;;;;35.17;21.27;;;;;;;4.69;100.00;98323.94;5031644;28;20445;-74
2022/03/18 07:01:34;;;;;;;35.73;21.37;;;;;;;4.72;100.00;98315.59;5022536;28;20428;-74
2022/03/18 07:04:02;;;;;;;29.37;21.57;;;;;;;4.90;100.00;98340.75;5019177;28;20459;-74
2022/03/18 07:06:28;;;;;;;31.10;21.50;;;;;;;4.69;100.00;98302.19;5033888;28;20526;-74
2022/03/18 07:08:55;;;;;;;30.87;20.00;;;;;;;4.68;100.00;98303.22;5033503;28;20442;-74
2022/03/18 07:11:21;;;;;;;38.80;22.00;;;;;;;4.89;100.00;98336.53;5033596;28;20448;-74
2022/03/18 07:13:49;;;;;;;32.60;21.40;;;;;;;4.62;100.00;98296.28;5028204;28;20469;-73
2022/03/18 07:19:01;;;;;;;32.63;21.07;;;;;;;4.92;100.00;98330.00;5022943;28;20518;-74
2022/03/18 07:21:28;;;;;;;27.90;20.50;;;;;;;5.03;100.00;98334.38;5020350;28;20440;-74
2022/03/18 07:23:56;;;;;;;30.17;20.83;;;;;;;5.20;100.00;98356.13;5033328;28;20436;-74
2022/03/18 07:26:23;;;;;;;30.90;22.37;;;;;;;5.14;100.00;98351.84;5033423;28;20526;-74
2022/03/18 07:28:49;;;;;;;32.47;19.17;;;;;;;5.01;100.00;98329.38;5033232;28;20471;-74
2022/03/18 07:31:16;;;;;;;34.17;22.40;;;;;;;5.07;100.00;98340.72;5033195;28;20535;-74
2022/03/18 07:33:43;;;;;;;31.43;20.00;;;;;;;5.30;100.00;98379.06;5025002;28;20544;-74
2022/03/18 07:36:10;;;;;;;27.00;20.33;;;;;;;5.06;100.00;98357.47;5032590;28;20443;-74
2022/03/18 07:38:36;;;;;;;27.00;19.30;;;;;;;5.11;100.00;98360.19;5033363;28;20526;-74
2022/03/18 07:41:03;;;;;;;35.00;20.10;;;;;;;5.12;100.00;98367.03;5036391;28;20462;-73
2022/03/18 07:43:30;;;;;;;30.33;19.80;;;;;;;5.24;100.00;98366.94;5038252;28;20441;-73
2022/03/18 07:45:57;;;;;;;34.97;21.33;;;;;;;5.22;100.00;98354.06;5024875;28;20461;-73
2022/03/18 07:48:26;;;;;;;30.00;19.80;;;;;;;5.32;100.00;98363.88;5035005;28;21025;-74
2022/03/18 07:50:54;;;;;;;31.37;17.63;;;;;;;5.52;100.00;98382.53;5034419;28;20432;-73
2022/03/18 07:53:21;;;;;;;32.77;20.33;;;;;;;5.44;100.00;98382.94;5033198;28;20493;-74
2022/03/18 07:55:48;;;;;;;28.30;19.90;;;;;;;5.19;100.00;98346.66;5032978;28;20513;-74
2022/03/18 07:58:14;;;;;;;29.53;20.47;;;;;;;5.47;100.00;98379.81;5032911;28;20432;-74
2022/03/18 08:00:43;;;;;;;31.97;22.73;;;;;;;5.37;100.00;98356.09;5031758;28;20455;-74
2022/03/18 08:03:10;;;;;;;28.57;19.87;;;;;;;5.62;100.00;98392.38;5032933;28;20431;-74
2022/03/18 08:05:37;;;;;;;29.77;20.80;;;;;;;5.46;100.00;98372.19;5034056;28;20488;-74
2022/03/18 08:08:04;;;;;;;30.17;19.07;;;;;;;5.66;100.00;98395.31;5032913;28;20543;-74
2022/03/18 08:10:31;;;;;;;29.13;19.77;;;;;;;5.47;100.00;98381.66;5032651;28;20451;-74
2022/03/18 08:12:57;;;;;;;27.47;19.80;;;;;;;5.62;100.00;98393.19;5033939;28;20434;-74
2022/03/18 08:15:27;;;;;;;31.33;21.77;;;;;;;5.75;100.00;98402.53;5033713;28;20562;-74
2022/03/18 08:17:55;;;;;;;29.37;18.60;;;;;;;5.78;100.00;98415.16;5033813;28;20451;-74
2022/03/18 08:20:21;;;;;;;28.00;18.40;;;;;;;5.86;100.00;98417.34;5034488;28;20479;-73
2022/03/18 08:22:49;;;;;;;28.53;20.90;;;;;;;5.72;100.00;98410.06;5032218;28;20907;-74
2022/03/18 08:25:17;;;;;;;23.80;17.77;;;;;;;6.06;100.00;98426.56;5032397;28;20465;-74
2022/03/18 08:27:43;;;;;;;33.60;22.93;;;;;;;5.88;100.00;98389.03;5032207;28;20494;-74
2022/03/18 08:30:11;;;;;;;31.10;20.37;;;;;;;6.01;100.00;98395.78;5032095;28;20443;-74
2022/03/18 08:32:38;;;;;;;36.50;20.40;;;;;;;6.23;100.00;98428.06;5031584;28;20979;-74
2022/03/18 08:35:07;;;;;;;35.03;25.17;;;;;;;6.22;100.00;98429.09;5052572;28;20521;-74
2022/03/18 08:40:19;;;;;;;29.67;20.93;;;;;;;6.28;100.00;98435.22;5033230;28;20510;-74
2022/03/18 08:42:46;;;;;;;27.73;18.10;;;;;;;6.25;100.00;98416.50;5015414;28;20444;-74
2022/03/18 08:45:13;;;;;;;33.93;22.23;;;;;;;6.19;100.00;98408.59;5033121;28;20531;-74
2022/03/18 08:47:39;;;;;;;32.00;22.33;;;;;;;6.36;100.00;98440.03;5031994;28;20447;-74
2022/03/18 08:50:07;;;;;;;30.30;20.33;;;;;;;6.40;100.00;98435.06;5032022;28;20428;-74
2022/03/18 08:52:34;;;;;;;31.33;22.40;;;;;;;6.41;100.00;98458.50;5031617;28;20440;-74
2022/03/18 08:55:05;;;;;;;30.90;20.30;;;;;;;6.29;100.00;98413.16;5015616;28;20483;-74
2022/03/18 08:57:34;;;;;;;28.70;21.60;;;;;;;6.27;100.00;98448.56;5031468;28;20452;-75
2022/03/18 09:00:01;;;;;;;31.63;20.97;;;;;;;6.39;100.00;98436.09;5015225;28;20476;-74
2022/03/18 09:02:28;;;;;;;31.57;21.90;;;;;;;6.62;100.00;98435.81;5031493;28;20502;-74
2022/03/18 09:04:55;;;;;;;32.90;24.33;;;;;;;6.40;100.00;98448.19;5031571;28;20444;-73
2022/03/18 09:07:21;;;;;;;31.90;21.63;;;;;;;6.38;100.00;98432.69;5031431;28;20455;-74
2022/03/18 09:09:48;;;;;;;25.00;18.70;;;;;;;6.70;100.00;98474.81;5031111;28;20830;-74
2022/03/18 09:12:19;;;;;;;28.07;18.40;;;;;;;6.42;100.00;98451.41;5031319;28;20419;-74
2022/03/18 09:14:45;;;;;;;26.03;18.93;;;;;;;6.75;100.00;98479.31;5031328;28;20476;-74
2022/03/18 09:17:12;;;;;;;29.23;19.90;;;;;;;6.85;100.00;98484.69;5031263;28;20486;-74
2022/03/18 09:19:39;;;;;;;20.60;17.47;;;;;;;6.94;100.00;98474.50;5032474;28;20958;-74
2022/03/18 09:22:10;;;;;;;22.40;17.90;;;;;;;6.63;100.00;98471.59;5031287;28;20440;-74
2022/03/18 09:24:38;;;;;;;26.87;19.30;;;;;;;6.81;100.00;98479.16;5032281;28;20542;-73
2022/03/18 09:27:05;;;;;;;32.20;20.73;;;;;;;6.76;100.00;98468.56;5032723;28;20425;-74
2022/03/18 09:29:31;;;;;;;26.97;21.13;;;;;;;7.05;100.00;98491.97;5030828;28;20463;-74
2022/03/18 09:31:58;;;;;;;32.17;22.40;;;;;;;6.72;100.00;98450.91;5032207;28;20432;-74
2022/03/18 09:34:25;;;;;;;31.80;22.47;;;;;;;6.95;100.00;98487.44;5017406;28;20515;-74
2022/03/18 09:36:56;;;;;;;31.30;23.10;;;;;;;6.86;100.00;98473.13;5030746;28;20871;-74
2022/03/18 09:39:25;;;;;;;35.17;24.80;;;;;;;6.47;100.00;98468.00;5030740;28;20502;-74
2022/03/18 09:41:52;;;;;;;28.17;19.63;;;;;;;6.72;100.00;98470.09;5031978;28;20463;-74
2022/03/18 09:44:20;;;;;;;28.63;16.73;;;;;;;6.69;100.00;98465.34;5030774;28;20473;-74
2022/03/18 09:46:48;;;;;;;28.20;22.17;;;;;;;6.81;100.00;98508.06;5032122;28;20436;-73
2022/03/18 09:49:18;;;;;;;31.70;22.97;;;;;;;6.87;100.00;98505.47;5030858;28;20438;-75
2022/03/18 09:51:47;;;;;;;28.60;20.87;;;;;;;6.65;100.00;98453.72;5014301;28;20484;-74
2022/03/18 09:54:26;;;;;;;30.90;20.60;;;;;;;7.20;100.00;98514.97;5009162;28;20988;-74
2022/03/18 09:56:53;;;;;;;30.30;24.10;;;;;;;7.13;100.00;98507.31;5023904;28;21017;-74
2022/03/18 09:59:22;;;;;;;32.30;24.57;;;;;;;7.04;100.00;98506.16;5030697;28;20474;-74
2022/03/18 10:01:49;;;;;;;31.80;23.57;;;;;;;6.93;100.00;98483.44;5031686;28;20511;-74
2022/03/18 10:04:16;;;;;;;30.07;20.60;;;;;;;7.21;100.00;98506.03;5030292;28;20456;-74
2022/03/18 10:06:43;;;;;;;31.47;20.43;;;;;;;7.60;100.00;98502.16;5031799;28;20429;-74
2022/03/18 10:09:12;;;;;;;31.33;22.67;;;;;;;7.88;100.00;98516.03;5031683;28;20463;-74
2022/03/18 10:11:43;;;;;;;33.83;22.57;;;;;;;7.91;100.00;98515.53;5030318;28;20432;-74
2022/03/18 10:14:14;;;;;;;34.60;24.67;;;;;;;7.82;100.00;98503.88;5030115;28;20598;-74
2022/03/18 10:16:43;;;;;;;31.30;25.03;;;;;;;8.18;100.00;98513.56;5031433;28;20459;-74
2022/03/18 10:19:21;;;;;;;31.93;24.13;;;;;;;8.22;100.00;98517.28;5013839;28;20463;-74
2022/03/18 10:21:56;;;;;;;27.20;21.93;;;;;;;8.05;100.00;98513.25;5031002;28;20431;-74
2022/03/18 10:24:31;;;;;;;32.17;24.17;;;;;;;8.14;100.00;98515.13;5017092;28;20551;-74
2022/03/18 10:27:19;;;;;;;36.20;27.33;;;;;;;8.02;100.00;98505.84;5019064;28;20845;-74
2022/03/18 10:29:50;;;;;;;29.93;24.23;;;;;;;7.93;100.00;98521.34;5029822;28;21047;-74
2022/03/18 10:32:18;;;;;;;35.17;27.60;;;;;;;7.99;100.00;98517.66;5029957;28;20483;-74
2022/03/18 10:37:50;;;;;;;39.47;28.40;;;;;;;8.51;100.00;98524.81;5029807;28;20474;-74
2022/03/18 10:40:34;;;;;;;35.87;28.10;;;;;;;8.11;100.00;98457.66;5029958;28;20475;-74
2022/03/18 10:43:03;;;;;;;32.50;24.30;;;;;;;8.37;100.00;98479.69;5014016;28;20468;-74
2022/03/18 10:45:30;;;;;;;36.23;29.90;;;;;;;8.27;100.00;98522.56;5029787;28;21014;-74
2022/03/18 10:48:14;;;;;;;36.60;27.53;;;;;;;8.67;100.00;98505.34;5029926;28;20443;-75
2022/03/18 10:50:41;;;;;;;32.83;23.20;;;;;;;9.03;100.00;98518.63;5031320;28;20472;-74
2022/03/18 10:53:11;;;;;;;43.77;29.47;;;;;;;8.61;100.00;98481.88;5029952;28;20432;-74
2022/03/18 10:55:39;;;;;;;37.27;29.23;;;;;;;8.59;100.00;98525.13;5030933;28;20463;-74
2022/03/18 10:58:15;;;;;;;33.27;25.57;;;;;;;8.37;100.00;98526.34;5029793;28;20455;-74
2022/03/18 11:00:44;;;;;;;39.83;29.37;;;;;;;8.17;100.00;98509.34;5030046;28;20501;-74
2022/03/18 11:03:13;;;;;;;37.97;27.97;;;;;;;8.50;100.00;98529.28;5029712;28;20440;-75
2022/03/18 11:05:43;;;;;;;39.73;28.77;;;;;;;8.47;100.00;98507.94;5029653;28;20861;-74
2022/03/18 11:08:11;;;;;;;35.07;26.50;;;;;;;8.60;100.00;98533.81;5029862;28;20447;-75
2022/03/18 11:11:14;;;;;;;39.73;29.03;;;;;;;8.77;100.00;98509.88;5029517;28;20463;-74
2022/03/18 11:14:03;;;;;;;33.20;27.53;;;;;;;8.81;100.00;98535.47;5029750;28;20434;-74
2022/03/18 11:16:34;;;;;;;36.57;28.10;;;;;;;8.78;100.00;98533.34;5029864;28;20428;-74
2022/03/18 11:19:05;;;;;;;37.07;27.67;;;;;;;8.84;100.00;98534.94;5029649;28;20485;-74
2022/03/18 11:21:41;;;;;;;41.47;27.57;;;;;;;8.52;100.00;98532.44;5029800;28;20451;-74
2022/03/18 11:24:11;;;;;;;34.57;27.27;;;;;;;8.46;100.00;98485.25;5013442;28;20509;-74
2022/03/18 11:26:46;;;;;;;33.13;27.97;;;;;;;8.59;100.00;98527.75;5029610;28;20432;-74
2022/03/18 11:29:16;;;;;;;35.17;29.10;;;;;;;8.49;100.00;98526.91;5030813;28;20420;-74
2022/03/18 11:32:10;;;;;;;39.80;30.20;;;;;;;8.53;100.00;98538.53;5029690;28;20427;-74
2022/03/18 11:34:50;;;;;;;37.77;27.77;;;;;;;8.37;100.00;98508.66;5018295;28;20486;-74
2022/03/18 11:37:19;;;;;;;34.10;28.50;;;;;;;8.75;100.00;98536.50;5033215;28;20455;-74
2022/03/18 11:39:47;;;;;;;34.50;27.67;;;;;;;9.13;100.00;98543.19;5034444;28;20424;-74